Time;durP1;ratioP1;P1;durP2;ratioP2;P2;SDS_P1;SDS_P2;PMS_P1;PMS_P2;Temp;Humidity;BMP_temperature;BMP_pressure;BME280_temperature;BME280_humidity;BME280_pressure;Samples;Min_cycle;Max_cycle;Signal;HPM_P1;HPM_P2
2022/02/11 00:04:38;;;;;;;6.97;2.38;;;6.10;99.90;;;;;;5009725;28;20030;-71
2022/02/11 00:09:18;;;;;;;5.97;2.47;;;6.10;99.90;;;;;;5033452;28;20084;-73
2022/02/11 00:11:43;;;;;;;7.00;2.97;;;6.10;99.90;;;;;;5033489;28;20028;-72
2022/02/11 00:14:10;;;;;;;5.97;2.60;;;6.10;99.90;;;;;;5033313;28;20057;-71
2022/02/11 00:16:38;;;;;;;4.43;2.40;;;6.10;99.90;;;;;;5033183;28;20401;-72
2022/02/11 00:19:04;;;;;;;5.50;2.80;;;6.10;99.90;;;;;;5033361;28;20048;-71
2022/02/11 00:21:32;;;;;;;4.60;2.60;;;6.10;99.90;;;;;;5033481;28;20268;-72
2022/02/11 00:23:59;;;;;;;7.70;3.67;;;6.10;99.90;;;;;;5033041;28;20116;-71
2022/02/11 00:26:31;;;;;;;8.63;3.30;;;6.10;99.90;;;;;;5033104;28;20091;-71
2022/02/11 00:34:10;;;;;;;8.10;3.87;;;6.10;99.90;;;;;;5033044;28;20033;-71
2022/02/11 00:36:44;;;;;;;6.10;3.80;;;6.10;99.90;;;;;;5015132;28;20485;-72
2022/02/11 00:53:22;;;;;;;9.53;4.40;;;6.00;99.90;;;;;;5033105;28;20398;-72
2022/02/11 01:03:56;;;;;;;10.57;5.07;;;5.70;99.90;;;;;;5032581;28;20087;-72
2022/02/11 01:06:22;;;;;;;12.80;5.40;;;5.70;99.90;;;;;;5032338;28;20056;-72
2022/02/11 01:08:48;;;;;;;8.30;5.20;;;5.70;99.90;;;;;;5032268;28;20501;-72
2022/02/11 01:11:21;;;;;;;11.17;5.17;;;5.70;99.90;;;;;;5032374;28;20029;-72
2022/02/11 01:13:47;;;;;;;9.77;5.27;;;5.70;99.90;;;;;;5032343;28;20029;-74
2022/02/11 01:16:18;;;;;;;9.93;5.70;;;5.70;99.90;;;;;;5031878;28;20025;-74
2022/02/11 01:18:51;;;;;;;9.17;5.30;;;5.70;99.90;;;;;;5032115;28;20203;-74
2022/02/11 01:21:25;;;;;;;11.43;5.50;;;5.70;99.90;;;;;;5031866;28;20500;-73
2022/02/11 01:24:01;;;;;;;11.63;5.53;;;5.70;99.90;;;;;;5031875;28;20048;-74
2022/02/11 01:27:03;;;;;;;12.37;5.90;;;5.70;99.90;;;;;;5014125;28;20037;-74
2022/02/11 01:32:16;;;;;;;10.27;5.80;;;5.70;99.90;;;;;;5032356;28;20032;-72
2022/02/11 01:40:35;;;;;;;10.03;5.50;;;5.70;99.90;;;;;;5013792;28;20516;-72
2022/02/11 02:01:42;;;;;;;11.93;5.43;;;5.60;99.90;;;;;;5030152;28;20144;-72
2022/02/11 02:57:11;;;;;;;15.93;7.47;;;5.30;99.90;;;;;;5012740;28;20064;-71
2022/02/11 03:14:38;;;;;;;15.93;7.53;;;5.30;99.90;;;;;;5030226;28;20079;-71
2022/02/11 03:34:58;;;;;;;15.77;7.43;;;5.30;99.90;;;;;;5030002;28;20033;-72
2022/02/11 04:27:08;;;;;;;12.33;6.13;;;5.10;99.90;;;;;;5029460;28;20040;-72
2022/02/11 04:56:15;;;;;;;14.97;5.30;;;5.20;99.90;;;;;;5032730;28;20045;-73
2022/02/11 05:01:25;;;;;;;13.53;5.87;;;5.30;99.90;;;;;;5030872;28;20138;-73
2022/02/11 05:03:51;;;;;;;18.07;6.10;;;5.30;99.90;;;;;;5030989;28;20065;-73
2022/02/11 05:06:17;;;;;;;15.97;5.80;;;5.30;99.90;;;;;;5032001;28;20041;-73
2022/02/11 05:08:44;;;;;;;18.43;6.23;;;5.30;99.90;;;;;;5032141;28;20036;-73
2022/02/11 05:11:10;;;;;;;14.37;5.93;;;5.30;99.90;;;;;;5032047;28;20044;-74
2022/02/11 05:13:37;;;;;;;15.63;5.80;;;5.30;99.90;;;;;;5030943;28;20108;-73
2022/02/11 05:16:03;;;;;;;15.47;5.63;;;5.30;99.90;;;;;;5032395;28;20101;-73
2022/02/11 05:18:29;;;;;;;15.63;5.13;;;5.40;99.90;;;;;;5032334;28;20025;-73
2022/02/11 05:20:55;;;;;;;14.33;5.23;;;5.40;99.90;;;;;;5032103;28;20025;-73
2022/02/11 05:23:21;;;;;;;12.37;5.30;;;5.50;99.90;;;;;;5030905;28;20040;-72
2022/02/11 05:25:47;;;;;;;12.97;5.20;;;5.40;99.90;;;;;;5032077;28;20028;-72
2022/02/11 05:28:14;;;;;;;14.90;5.77;;;5.50;99.90;;;;;;5032183;28;20344;-73
2022/02/11 05:30:42;;;;;;;14.03;5.33;;;5.50;99.90;;;;;;5031631;28;20390;-73
2022/02/11 05:33:08;;;;;;;12.67;5.17;;;5.50;99.90;;;;;;5032011;28;20025;-73
2022/02/11 05:35:35;;;;;;;17.77;6.60;;;5.50;99.90;;;;;;5013836;28;20490;-73
2022/02/11 05:38:01;;;;;;;12.43;4.47;;;5.50;99.90;;;;;;5030595;28;20033;-73
2022/02/11 05:40:27;;;;;;;13.50;4.60;;;5.50;99.90;;;;;;5032008;28;20388;-74
2022/02/11 05:42:53;;;;;;;14.87;4.50;;;5.60;99.90;;;;;;5032439;28;20034;-72
2022/02/11 05:45:19;;;;;;;19.37;4.40;;;5.60;99.90;;;;;;5030963;28;20030;-72
2022/02/11 05:47:45;;;;;;;16.50;4.30;;;5.60;99.90;;;;;;5030828;28;20037;-73
2022/02/11 05:50:11;;;;;;;10.70;3.70;;;5.60;99.90;;;;;;5031862;28;20033;-73
2022/02/11 05:52:37;;;;;;;14.53;3.83;;;5.60;99.90;;;;;;5032290;28;20108;-73
2022/02/11 05:55:04;;;;;;;12.33;3.90;;;5.60;99.90;;;;;;5031367;28;20444;-73
2022/02/11 05:57:30;;;;;;;14.80;3.87;;;5.60;99.90;;;;;;5032019;28;20029;-73
2022/02/11 05:59:56;;;;;;;17.63;3.83;;;5.60;99.90;;;;;;5030184;28;20036;-74
2022/02/11 06:02:22;;;;;;;14.70;4.00;;;5.60;99.90;;;;;;5030860;28;20104;-73
2022/02/11 06:04:48;;;;;;;17.90;4.73;;;5.70;99.90;;;;;;5031799;28;20029;-74
2022/02/11 06:07:16;;;;;;;15.30;3.80;;;5.60;99.90;;;;;;5052863;23;20055;-85
2022/02/11 06:09:42;;;;;;;15.40;3.63;;;5.70;99.90;;;;;;5012692;28;20815;-81
2022/02/11 06:12:08;;;;;;;11.57;4.00;;;5.70;99.90;;;;;;5030873;28;20018;-81
2022/02/11 06:14:35;;;;;;;19.63;4.40;;;5.70;99.90;;;;;;5029163;28;20586;-81
2022/02/11 06:17:01;;;;;;;15.10;4.53;;;5.60;99.90;;;;;;5029332;28;20087;-81
2022/02/11 06:19:27;;;;;;;17.83;4.50;;;5.60;99.90;;;;;;5029257;28;20454;-81
2022/02/11 06:21:52;;;;;;;15.63;4.30;;;5.70;99.90;;;;;;5032394;28;20032;-81
2022/02/11 06:24:18;;;;;;;15.40;3.87;;;5.70;99.90;;;;;;5027871;28;20022;-82
2022/02/11 06:26:44;;;;;;;18.33;3.53;;;5.70;99.90;;;;;;5027892;28;20385;-82
2022/02/11 06:29:11;;;;;;;15.30;3.87;;;5.70;99.90;;;;;;5012513;28;20112;-83
2022/02/11 06:31:37;;;;;;;14.87;3.40;;;5.70;99.90;;;;;;5030493;28;20155;-83
2022/02/11 06:34:02;;;;;;;11.27;3.30;;;5.70;99.90;;;;;;5030645;28;20128;-81
2022/02/11 06:36:28;;;;;;;17.23;3.57;;;5.70;99.90;;;;;;5030596;28;20037;-85
2022/02/11 06:38:54;;;;;;;12.20;3.40;;;5.60;99.90;;;;;;5031019;28;20022;-86
2022/02/11 06:41:20;;;;;;;14.47;3.57;;;5.60;99.90;;;;;;5029842;28;20103;-84
2022/02/11 06:43:46;;;;;;;16.03;3.93;;;5.70;99.90;;;;;;5013204;28;20056;-84
2022/02/11 06:46:11;;;;;;;12.70;3.60;;;5.60;99.90;;;;;;5031114;28;20477;-84
2022/02/11 06:48:37;;;;;;;20.77;4.97;;;5.70;99.90;;;;;;5030716;28;20175;-83
2022/02/11 06:51:03;;;;;;;16.03;3.37;;;5.80;99.90;;;;;;5012492;28;20033;-83
2022/02/11 06:53:30;;;;;;;17.33;3.33;;;5.80;99.90;;;;;;5030443;28;20084;-83
2022/02/11 06:55:56;;;;;;;20.63;3.57;;;5.80;99.90;;;;;;5029607;28;20038;-83
2022/02/11 06:58:22;;;;;;;16.03;2.80;;;5.80;99.90;;;;;;5035408;28;20606;-88
2022/02/11 07:00:55;;;;;;;18.93;3.73;;;5.90;99.90;;;;;;5014445;28;20652;-89
2022/02/11 07:03:24;;;;;;;21.30;4.63;;;5.90;99.90;;;;;;5012901;28;20056;-88
2022/02/11 07:06:22;;;;;;;20.17;4.70;;;6.10;99.90;;;;;;5031611;28;20090;-91
2022/02/11 07:09:00;;;;;;;14.57;2.50;;;6.00;99.90;;;;;;5014287;28;20571;-90
2022/02/11 07:11:25;;;;;;;18.57;4.20;;;6.00;99.90;;;;;;5029854;28;20040;-84
2022/02/11 07:13:51;;;;;;;18.20;3.13;;;5.90;99.90;;;;;;5031567;28;20029;-78
2022/02/11 07:16:17;;;;;;;15.90;2.30;;;5.80;99.90;;;;;;5030052;28;20040;-78
2022/02/11 07:18:44;;;;;;;15.80;2.77;;;5.80;99.90;;;;;;5030248;28;20112;-78
2022/02/11 07:21:10;;;;;;;19.20;4.30;;;5.80;99.90;;;;;;5030018;28;20029;-78
2022/02/11 07:23:36;;;;;;;13.40;2.90;;;5.80;99.90;;;;;;5031424;28;20060;-79
2022/02/11 07:26:01;;;;;;;12.70;2.80;;;5.80;99.90;;;;;;5028694;28;20037;-77
2022/02/11 07:28:27;;;;;;;15.03;3.10;;;5.80;99.90;;;;;;5012580;28;20041;-77
2022/02/11 07:30:53;;;;;;;21.67;4.80;;;5.80;99.90;;;;;;5029692;28;20476;-79
2022/02/11 07:33:19;;;;;;;15.20;4.77;;;5.80;99.90;;;;;;5029850;28;20048;-79
2022/02/11 07:35:45;;;;;;;16.90;4.07;;;5.90;99.90;;;;;;5011871;28;20030;-78
2022/02/11 07:38:11;;;;;;;20.17;2.77;;;5.90;99.90;;;;;;5029846;28;20055;-83
2022/02/11 07:40:39;;;;;;;18.47;2.90;;;5.90;99.90;;;;;;5011418;28;20105;-82
2022/02/11 07:43:06;;;;;;;13.43;2.00;;;5.90;99.90;;;;;;5029852;28;20044;-82
2022/02/11 07:45:34;;;;;;;13.00;2.13;;;5.80;99.90;;;;;;5029528;28;20025;-81
2022/02/11 07:48:00;;;;;;;10.73;2.00;;;5.70;99.90;;;;;;5029845;28;20168;-82
2022/02/11 07:50:26;;;;;;;14.37;2.17;;;5.70;99.90;;;;;;5029657;28;20049;-83
2022/02/11 07:52:52;;;;;;;12.20;2.23;;;5.60;99.90;;;;;;5011979;28;20025;-80
2022/02/11 07:55:19;;;;;;;15.33;2.33;;;5.60;99.90;;;;;;5028407;28;20026;-78
2022/02/11 07:57:44;;;;;;;14.33;2.90;;;5.70;99.90;;;;;;5011557;28;20042;-78
2022/02/11 08:00:10;;;;;;;17.83;3.17;;;5.70;99.90;;;;;;5029363;28;20021;-77
2022/02/11 08:02:39;;;;;;;16.25;4.57;;;5.80;99.90;;;;;;5028509;28;20084;-78
2022/02/11 08:05:06;;;;;;;20.90;6.60;;;5.80;99.90;;;;;;5010086;28;20041;-77
2022/02/11 08:07:31;;;;;;;16.17;3.93;;;5.80;99.90;;;;;;5028857;28;20034;-77
2022/02/11 08:09:58;;;;;;;17.77;4.23;;;5.80;99.90;;;;;;5028257;28;20497;-78
2022/02/11 08:12:23;;;;;;;14.53;2.60;;;5.90;99.90;;;;;;5029348;28;20048;-78
2022/02/11 08:14:50;;;;;;;14.57;2.80;;;5.80;99.90;;;;;;5028608;28;20493;-78
2022/02/11 08:17:16;;;;;;;9.37;1.90;;;5.90;99.90;;;;;;5028851;28;20149;-78
2022/02/11 08:19:41;;;;;;;13.93;2.70;;;5.90;99.90;;;;;;5028775;28;20061;-78
2022/02/11 08:22:07;;;;;;;13.87;2.13;;;5.90;99.90;;;;;;5029020;28;20057;-78
2022/02/11 08:24:33;;;;;;;21.80;4.77;;;5.90;99.90;;;;;;5010023;28;20030;-78
2022/02/11 08:26:59;;;;;;;14.10;4.53;;;5.90;99.90;;;;;;5031592;28;20545;-79
2022/02/11 08:29:31;;;;;;;16.63;3.83;;;5.90;99.90;;;;;;5032583;28;20505;-78
2022/02/11 08:31:57;;;;;;;19.67;4.00;;;5.90;99.90;;;;;;5032936;28;20033;-79
2022/02/11 08:34:23;;;;;;;11.13;2.57;;;5.90;99.90;;;;;;5032222;28;20037;-78
2022/02/11 08:36:50;;;;;;;13.03;2.63;;;5.90;99.90;;;;;;5032771;28;20033;-78
2022/02/11 08:39:16;;;;;;;13.47;2.30;;;5.90;99.90;;;;;;5014165;28;20038;-80
2022/02/11 08:41:42;;;;;;;14.87;2.70;;;5.90;99.90;;;;;;5031767;28;20083;-82
2022/02/11 08:44:08;;;;;;;15.57;2.77;;;5.90;99.90;;;;;;5014573;28;20455;-83
2022/02/11 08:46:34;;;;;;;19.90;2.80;;;5.90;99.90;;;;;;5032295;28;20025;-78
2022/02/11 08:48:59;;;;;;;13.80;2.97;;;5.90;99.90;;;;;;5032329;28;20034;-78
2022/02/11 08:51:27;;;;;;;13.30;2.33;;;5.90;99.90;;;;;;5032173;28;20217;-78
2022/02/11 08:53:53;;;;;;;14.77;2.40;;;5.80;99.90;;;;;;5032318;28;20559;-82
2022/02/11 08:56:19;;;;;;;21.13;3.30;;;5.80;99.90;;;;;;5012996;28;20037;-80
2022/02/11 08:58:45;;;;;;;11.03;1.67;;;5.80;99.90;;;;;;5031963;28;20497;-79
2022/02/11 09:01:11;;;;;;;10.67;1.73;;;5.80;99.90;;;;;;5032768;28;20030;-80
2022/02/11 09:03:39;;;;;;;18.53;2.90;;;5.80;99.90;;;;;;5028543;28;20446;-84
2022/02/11 09:06:06;;;;;;;14.93;2.90;;;5.80;99.90;;;;;;5013151;28;20049;-85
2022/02/11 09:08:33;;;;;;;11.57;2.33;;;5.80;99.90;;;;;;5030939;28;20417;-84
2022/02/11 09:11:03;;;;;;;18.17;2.63;;;5.80;99.90;;;;;;5030778;28;20113;-83
2022/02/11 09:13:29;;;;;;;16.57;2.67;;;5.80;99.90;;;;;;5031886;28;20041;-83
2022/02/11 09:15:55;;;;;;;15.47;2.87;;;5.80;99.90;;;;;;5031949;28;20702;-83
2022/02/11 09:18:24;;;;;;;15.50;2.70;;;5.80;99.90;;;;;;5014018;28;20037;-84
2022/02/11 09:20:50;;;;;;;19.33;3.03;;;5.90;99.90;;;;;;5013981;28;20097;-83
2022/02/11 09:23:17;;;;;;;12.77;2.70;;;5.80;99.90;;;;;;5031985;28;20033;-81
2022/02/11 09:25:43;;;;;;;13.27;2.57;;;5.90;99.90;;;;;;5030735;28;20508;-79
2022/02/11 09:28:09;;;;;;;16.97;2.23;;;6.00;99.90;;;;;;5031221;28;20125;-79
2022/02/11 09:30:35;;;;;;;18.97;3.10;;;6.00;99.90;;;;;;5031041;28;20037;-81
2022/02/11 09:33:01;;;;;;;16.93;3.17;;;6.10;99.90;;;;;;5031544;28;20121;-79
2022/02/11 09:35:28;;;;;;;16.43;2.67;;;6.10;99.90;;;;;;5030908;28;20079;-80
2022/02/11 09:37:55;;;;;;;24.10;3.13;;;6.10;99.90;;;;;;5031081;28;20037;-81
2022/02/11 09:40:22;;;;;;;16.80;3.00;;;6.40;99.90;;;;;;5012359;28;20040;-83
2022/02/11 09:42:52;;;;;;;29.37;3.67;;;6.60;99.90;;;;;;5031597;28;20052;-80
2022/02/11 09:45:20;;;;;;;29.83;3.27;;;6.70;99.90;;;;;;5030817;28;20033;-82
2022/02/11 09:47:47;;;;;;;48.83;4.43;;;6.80;99.90;;;;;;5031357;28;20056;-80
2022/02/11 09:50:14;;;;;;;32.93;3.00;;;6.90;99.90;;;;;;5013188;28;20037;-83
2022/02/11 09:52:53;;;;;;;22.73;3.07;;;6.80;99.90;;;;;;5031503;28;20052;-79
2022/02/11 09:55:34;;;;;;;26.57;3.30;;;6.90;99.90;;;;;;5029754;28;20087;-79
2022/02/11 09:58:07;;;;;;;14.83;2.43;;;7.10;99.90;;;;;;5030680;28;20087;-81
2022/02/11 10:00:35;;;;;;;17.30;3.13;;;7.10;99.90;;;;;;5030836;28;20029;-80
2022/02/11 10:03:03;;;;;;;23.80;3.63;;;6.90;99.90;;;;;;5013231;28;20026;-79
2022/02/11 10:05:32;;;;;;;14.57;3.17;;;6.80;99.90;;;;;;5030291;28;20466;-79
2022/02/11 10:07:58;;;;;;;18.77;2.97;;;6.80;99.90;;;;;;5030421;28;20125;-79
2022/02/11 10:13:20;;;;;;;17.17;2.77;;;6.60;99.90;;;;;;5030825;28;20033;-78
2022/02/11 10:15:54;;;;;;;20.47;3.30;;;6.50;99.90;;;;;;5029998;28;20045;-79
2022/02/11 10:18:25;;;;;;;17.57;3.27;;;6.50;99.90;;;;;;5030642;28;20037;-80
2022/02/11 10:20:56;;;;;;;11.80;2.47;;;6.60;99.90;;;;;;5029868;28;20025;-77
2022/02/11 10:23:31;;;;;;;20.27;2.60;;;6.60;99.90;;;;;;5029170;28;20033;-82
2022/02/11 10:26:02;;;;;;;17.90;2.60;;;6.60;99.90;;;;;;5025325;28;20025;-80
2022/02/11 10:28:30;;;;;;;21.37;2.63;;;6.60;99.90;;;;;;5030120;28;20030;-79
2022/02/11 10:31:10;;;;;;;22.45;3.88;;;6.70;99.90;;;;;;5030332;28;20052;-80
2022/02/11 10:33:49;;;;;;;;;;;6.70;99.90;;;;;;5031630;28;20068;-78
2022/02/11 10:36:16;;;;;;;16.52;2.53;;;6.60;99.90;;;;;;5030132;28;20301;-82
2022/02/11 10:38:42;;;;;;;15.43;2.30;;;6.70;99.90;;;;;;5014225;28;20057;-82
2022/02/11 10:41:07;;;;;;;18.83;2.70;;;6.70;99.90;;;;;;5028981;28;20031;-82
2022/02/11 10:43:33;;;;;;;22.57;2.50;;;6.70;99.90;;;;;;5031362;28;20497;-82
2022/02/11 10:46:01;;;;;;;18.63;3.43;;;6.70;99.90;;;;;;5030765;28;20385;-83
2022/02/11 10:48:28;;;;;;;16.30;2.40;;;6.60;99.90;;;;;;5026976;28;20033;-82
2022/02/11 10:50:56;;;;;;;21.83;4.23;;;6.80;99.90;;;;;;5031761;28;20072;-85
2022/02/11 10:53:30;;;;;;;16.70;2.63;;;6.90;99.90;;;;;;5033032;28;20083;-83
2022/02/11 10:56:02;;;;;;;11.97;2.40;;;7.00;99.90;;;;;;5029911;28;20056;-83
2022/02/11 10:58:32;;;;;;;18.13;2.27;;;7.00;99.90;;;;;;5028993;28;20040;-82
2022/02/11 11:01:03;;;;;;;17.30;2.67;;;7.00;99.90;;;;;;5031188;28;20021;-79
2022/02/11 11:03:33;;;;;;;14.23;2.47;;;7.00;99.90;;;;;;5015051;28;20084;-82
2022/02/11 11:06:01;;;;;;;14.75;3.60;;;7.00;99.90;;;;;;5030040;28;20106;-82
2022/02/11 11:08:29;;;;;;;15.20;3.03;;;7.10;99.90;;;;;;5029568;28;20041;-81
2022/02/11 11:10:59;;;;;;;19.93;3.30;;;7.10;99.90;;;;;;5013600;28;26319;-82
2022/02/11 11:14:42;;;;;;;17.30;2.57;;;7.20;99.40;;;;;;5065894;28;20138;-67
2022/02/11 11:17:08;;;;;;;14.33;2.17;;;7.20;98.00;;;;;;5066176;28;20033;-70
2022/02/11 11:19:37;;;;;;;13.60;2.20;;;7.20;98.20;;;;;;5065712;28;20051;-69
2022/02/11 11:22:15;;;;;;;18.03;3.07;;;7.20;98.80;;;;;;5064823;28;20335;-67
2022/02/11 11:24:50;;;;;;;14.83;2.37;;;7.10;99.20;;;;;;5064976;28;20747;-69
2022/02/11 11:27:37;;;;;;;17.83;2.37;;;7.10;99.70;;;;;;5064804;28;20365;-70
2022/02/11 11:30:27;;;;;;;10.57;2.00;;;7.20;99.60;;;;;;5064573;28;20034;-69
2022/02/11 11:33:04;;;;;;;12.48;2.33;;;7.20;99.40;;;;;;5064769;28;20040;-69
2022/02/11 11:36:01;;;;;;;16.33;2.20;;;7.20;99.70;;;;;;5063409;28;20040;-70
2022/02/11 11:38:40;;;;;;;14.93;2.20;;;7.20;99.60;;;;;;5057968;28;20029;-70
2022/02/11 11:41:15;;;;;;;17.85;2.97;;;7.20;99.50;;;;;;5064992;28;20107;-70
2022/02/11 11:43:53;;;;;;;19.17;2.83;;;7.20;99.20;;;;;;5059220;28;20035;-69
2022/02/11 11:46:22;;;;;;;13.50;2.20;;;7.20;99.20;;;;;;5066050;28;20039;-70
2022/02/11 11:49:08;;;;;;;17.13;2.22;;;7.10;99.30;;;;;;5065933;28;20055;-71
2022/02/11 11:51:37;;;;;;;13.80;2.10;;;7.10;98.40;;;;;;5058984;28;20558;-70
2022/02/11 11:54:18;;;;;;;13.68;2.35;;;7.20;98.30;;;;;;5065733;28;20245;-72
2022/02/11 11:56:47;;;;;;;11.83;2.43;;;7.20;97.50;;;;;;5064630;28;20074;-70
2022/02/11 11:59:24;;;;;;;14.85;2.00;;;7.20;96.90;;;;;;5065582;28;20060;-70
2022/02/11 12:01:54;;;;;;;11.60;2.07;;;7.30;96.50;;;;;;5065911;28;20039;-70
2022/02/11 12:04:25;;;;;;;10.45;1.63;;;7.40;96.40;;;;;;5064641;28;20115;-73
2022/02/11 12:06:55;;;;;;;14.00;1.90;;;7.40;94.30;;;;;;5087986;22;20035;-83
2022/02/11 12:09:22;;;;;;;11.17;1.67;;;7.40;94.70;;;;;;5063816;28;20044;-84
2022/02/11 12:11:54;;;;;;;12.93;1.63;;;7.40;94.40;;;;;;5043979;28;20033;-86
2022/02/11 12:14:45;;;;;;;9.40;1.57;;;7.30;94.70;;;;;;5044880;28;20508;-88
2022/02/11 12:17:27;;;;;;;8.70;1.43;;;7.40;94.20;;;;;;5041138;28;20040;-85
2022/02/11 12:19:56;;;;;;;10.33;1.40;;;7.40;92.20;;;;;;5043455;28;20025;-88
2022/02/11 12:22:27;;;;;;;10.47;1.00;;;7.40;91.80;;;;;;5043966;28;20026;-86
2022/02/11 12:28:41;;;;;;;7.70;1.23;;;7.40;90.40;;;;;;5053403;22;20473;-74
2022/02/11 12:31:08;;;;;;;7.93;1.60;;;7.30;90.20;;;;;;5051766;28;20052;-75
2022/02/11 12:33:34;;;;;;;9.10;1.43;;;7.30;88.60;;;;;;5044484;28;20041;-74
2022/02/11 12:36:11;;;;;;;10.83;1.73;;;7.30;89.00;;;;;;5051533;28;20021;-75
2022/02/11 12:38:37;;;;;;;11.13;1.83;;;7.40;90.20;;;;;;5052217;28;20496;-70
2022/02/11 12:41:03;;;;;;;10.03;1.50;;;7.50;89.00;;;;;;5052009;28;20021;-73
2022/02/11 12:43:29;;;;;;;9.43;1.70;;;7.70;90.90;;;;;;5049727;28;20110;-74
2022/02/11 12:45:56;;;;;;;6.73;1.47;;;7.80;89.60;;;;;;5051299;28;20470;-74
2022/02/11 12:48:30;;;;;;;11.07;1.60;;;8.00;95.50;;;;;;5051196;28;20056;-71
2022/02/11 12:50:56;;;;;;;9.43;1.50;;;8.30;96.60;;;;;;5051212;28;20036;-72
2022/02/11 12:53:27;;;;;;;7.03;1.50;;;8.50;94.70;;;;;;5050744;28;20094;-72
2022/02/11 12:55:54;;;;;;;9.40;1.70;;;8.70;92.60;;;;;;5050771;28;20083;-71
2022/02/11 12:58:21;;;;;;;9.40;1.47;;;8.70;90.30;;;;;;5049428;28;20029;-71
2022/02/11 13:00:49;;;;;;;8.30;1.23;;;8.60;87.10;;;;;;5051147;28;20422;-70
2022/02/11 13:03:16;;;;;;;12.07;1.70;;;8.60;89.30;;;;;;5050964;28;20487;-73
2022/02/11 13:05:48;;;;;;;9.80;1.60;;;8.50;91.60;;;;;;5049640;28;20044;-74
2022/02/11 13:08:40;;;;;;;9.77;1.77;;;8.50;91.90;;;;;;5050836;28;20025;-73
2022/02/11 13:11:07;;;;;;;10.63;1.93;;;8.30;90.70;;;;;;5049602;28;20045;-71
2022/02/11 13:13:35;;;;;;;8.17;1.50;;;8.10;90.80;;;;;;5049186;28;20044;-74
2022/02/11 13:16:03;;;;;;;9.03;1.70;;;7.90;91.20;;;;;;5050862;28;20094;-73
2022/02/11 13:18:33;;;;;;;8.50;2.03;;;7.90;91.00;;;;;;5050911;28;20103;-70
2022/02/11 13:21:04;;;;;;;7.83;1.13;;;7.80;90.80;;;;;;5050873;28;20487;-73
2022/02/11 13:23:30;;;;;;;10.83;1.37;;;7.80;91.00;;;;;;5051029;28;20041;-71
2022/02/11 13:25:57;;;;;;;7.27;2.03;;;7.70;91.40;;;;;;5050603;28;20501;-70
2022/02/11 13:28:26;;;;;;;8.60;1.50;;;7.60;91.10;;;;;;5032821;28;20439;-70
2022/02/11 13:31:00;;;;;;;7.93;2.13;;;7.60;90.50;;;;;;5051026;28;20035;-70
2022/02/11 13:33:31;;;;;;;8.40;1.40;;;7.60;91.20;;;;;;5050450;28;20442;-70
2022/02/11 13:35:59;;;;;;;7.70;1.67;;;7.50;91.10;;;;;;5049900;28;20109;-70
2022/02/11 13:38:30;;;;;;;6.60;1.50;;;7.60;91.50;;;;;;5050255;28;20500;-70
2022/02/11 13:41:00;;;;;;;11.43;1.40;;;7.60;91.10;;;;;;5050303;28;20021;-69
2022/02/11 13:43:27;;;;;;;8.80;1.30;;;7.60;91.70;;;;;;5049024;28;20119;-69
2022/02/11 13:46:00;;;;;;;14.00;1.80;;;7.60;91.80;;;;;;5050240;28;20504;-70
2022/02/11 13:48:33;;;;;;;10.00;1.97;;;7.60;91.00;;;;;;5050555;28;20021;-70
2022/02/11 13:51:12;;;;;;;11.40;2.10;;;7.60;92.10;;;;;;5050883;28;20041;-70
2022/02/11 13:53:44;;;;;;;10.27;1.90;;;7.60;93.20;;;;;;5050956;28;20042;-70
2022/02/11 13:56:12;;;;;;;10.47;1.97;;;7.60;95.60;;;;;;5050513;28;20044;-70
2022/02/11 13:58:40;;;;;;;13.93;2.50;;;7.60;98.30;;;;;;5050539;28;20048;-70
2022/02/11 14:01:25;;;;;;;11.77;1.70;;;7.50;97.80;;;;;;5050270;28;20064;-70
2022/02/11 14:03:52;;;;;;;12.97;1.67;;;7.50;98.20;;;;;;5048927;28;20465;-69
2022/02/11 14:06:18;;;;;;;12.00;2.33;;;7.50;98.60;;;;;;5050527;28;20421;-70
2022/02/11 14:08:46;;;;;;;16.10;2.53;;;7.50;98.80;;;;;;5049478;28;20059;-69
2022/02/11 14:11:19;;;;;;;12.80;2.03;;;7.40;99.90;;;;;;5050299;28;20493;-70
2022/02/11 14:13:47;;;;;;;12.13;2.33;;;7.50;99.40;;;;;;5049677;28;20033;-69
2022/02/11 14:16:13;;;;;;;14.50;2.33;;;7.40;99.30;;;;;;5049728;28;20045;-69
2022/02/11 14:18:43;;;;;;;16.83;2.90;;;7.30;99.10;;;;;;5042916;28;20472;-69
2022/02/11 14:21:28;;;;;;;19.60;3.47;;;7.30;99.90;;;;;;5049859;28;20424;-69
2022/02/11 14:23:54;;;;;;;10.70;2.03;;;7.30;99.50;;;;;;5049443;28;20033;-70
2022/02/11 14:26:20;;;;;;;17.57;3.30;;;7.30;99.60;;;;;;5049558;28;20079;-70
2022/02/11 14:28:45;;;;;;;16.23;2.50;;;7.20;99.20;;;;;;5049714;28;20481;-69
2022/02/11 14:31:11;;;;;;;10.67;2.20;;;7.20;99.50;;;;;;5049497;28;20032;-69
2022/02/11 14:33:37;;;;;;;13.80;2.20;;;7.20;98.80;;;;;;5049654;28;20139;-70
2022/02/11 14:36:04;;;;;;;18.17;2.43;;;7.20;99.40;;;;;;5049145;28;20446;-69
2022/02/11 14:38:30;;;;;;;13.30;2.23;;;7.20;98.40;;;;;;5049307;28;20029;-69
2022/02/11 14:43:41;;;;;;;17.03;2.60;;;7.20;98.20;;;;;;5049340;28;20025;-70
2022/02/11 14:46:07;;;;;;;14.80;2.30;;;7.20;97.40;;;;;;5049141;28;20493;-69
2022/02/11 14:48:33;;;;;;;12.33;1.80;;;7.10;97.40;;;;;;5049264;28;20122;-70
2022/02/11 14:51:00;;;;;;;10.90;1.90;;;7.10;96.80;;;;;;5049312;28;20029;-69
2022/02/11 14:53:26;;;;;;;11.13;1.90;;;7.10;96.80;;;;;;5047612;28;20036;-73
2022/02/11 14:55:52;;;;;;;11.57;1.90;;;7.20;99.90;;;;;;5048926;28;20486;-70
2022/02/11 14:58:18;;;;;;;10.67;1.90;;;7.40;99.90;;;;;;5049027;28;20323;-68
2022/02/11 15:00:44;;;;;;;10.00;2.17;;;7.50;98.80;;;;;;5049263;28;20224;-70
2022/02/11 15:03:10;;;;;;;10.77;1.97;;;7.50;95.90;;;;;;5048547;28;20033;-70
2022/02/11 15:05:36;;;;;;;7.97;1.70;;;7.40;95.50;;;;;;5046916;28;20492;-69
2022/02/11 15:08:01;;;;;;;8.03;1.77;;;7.40;95.50;;;;;;5047077;28;20037;-69
2022/02/11 15:10:27;;;;;;;11.60;1.60;;;7.50;94.50;;;;;;5047491;28;20032;-69
2022/02/11 15:12:53;;;;;;;8.83;1.63;;;7.40;92.90;;;;;;5047520;28;20045;-68
2022/02/11 15:15:19;;;;;;;12.50;1.93;;;7.40;91.70;;;;;;5047381;28;20025;-69
2022/02/11 15:17:45;;;;;;;8.50;1.80;;;7.40;91.20;;;;;;5048265;28;20025;-69
2022/02/11 15:20:12;;;;;;;8.43;1.27;;;7.40;90.50;;;;;;5048826;28;20552;-69
2022/02/11 15:22:37;;;;;;;9.57;1.50;;;7.30;90.30;;;;;;5047858;28;20029;-69
2022/02/11 15:25:04;;;;;;;7.97;1.30;;;7.30;89.70;;;;;;5048592;28;20024;-69
2022/02/11 15:27:30;;;;;;;7.43;1.50;;;7.30;89.20;;;;;;5049015;28;20044;-69
2022/02/11 15:29:58;;;;;;;8.67;1.60;;;7.30;90.00;;;;;;5048505;28;20021;-74
2022/02/11 15:32:24;;;;;;;13.30;2.07;;;7.40;96.80;;;;;;5048713;28;20452;-70
2022/02/11 15:34:50;;;;;;;8.40;2.03;;;7.60;91.70;;;;;;5048452;28;20108;-70
2022/02/11 15:37:17;;;;;;;8.10;1.80;;;7.60;89.60;;;;;;5048630;28;20385;-71
2022/02/11 15:39:44;;;;;;;10.50;1.50;;;7.70;87.20;;;;;;5048495;28;20029;-71
2022/02/11 15:42:10;;;;;;;7.97;1.40;;;7.70;86.80;;;;;;5048494;28;20039;-71
2022/02/11 15:44:36;;;;;;;8.53;1.57;;;7.60;87.00;;;;;;5048570;28;20286;-71
2022/02/11 15:47:03;;;;;;;11.13;1.47;;;7.40;87.10;;;;;;5047121;28;20036;-70
2022/02/11 15:49:28;;;;;;;10.13;1.50;;;7.40;85.80;;;;;;5046621;28;20032;-72
2022/02/11 15:51:54;;;;;;;8.53;1.50;;;7.30;86.80;;;;;;5047080;28;20531;-72
2022/02/11 15:54:20;;;;;;;7.70;1.40;;;7.30;86.60;;;;;;5048222;28;20033;-71
2022/02/11 15:56:46;;;;;;;7.80;1.77;;;7.20;86.20;;;;;;5048679;28;20081;-71
2022/02/11 15:59:12;;;;;;;6.13;1.57;;;7.20;86.20;;;;;;5048520;28;20036;-71
2022/02/11 16:01:38;;;;;;;9.47;2.17;;;7.20;84.70;;;;;;5052189;28;20079;-72
2022/02/11 16:04:07;;;;;;;10.90;3.50;;;7.20;85.00;;;;;;5052122;28;20059;-71
2022/02/11 16:06:34;;;;;;;10.57;2.87;;;7.10;84.30;;;;;;5052150;28;20048;-72
2022/02/11 16:08:59;;;;;;;10.93;2.80;;;7.10;84.80;;;;;;5051861;28;20111;-72
2022/02/11 16:11:26;;;;;;;10.53;2.17;;;7.10;83.80;;;;;;5051972;28;20094;-72
2022/02/11 16:13:51;;;;;;;8.83;2.00;;;7.10;83.50;;;;;;5051825;28;20033;-71
2022/02/11 16:16:17;;;;;;;7.63;2.10;;;7.10;83.60;;;;;;5050657;28;20371;-72
2022/02/11 16:18:43;;;;;;;8.73;1.80;;;7.00;83.80;;;;;;5051876;28;20025;-73
2022/02/11 16:21:09;;;;;;;8.63;1.90;;;7.10;91.70;;;;;;5051675;28;20112;-71
2022/02/11 16:23:40;;;;;;;9.97;2.30;;;7.20;92.60;;;;;;5051771;28;20029;-71
2022/02/11 16:26:08;;;;;;;8.70;2.40;;;7.40;91.60;;;;;;5033830;28;20412;-71
2022/02/11 16:28:34;;;;;;;5.87;1.50;;;7.40;82.50;;;;;;5050380;28;20029;-72
2022/02/11 16:31:21;;;;;;;9.37;1.70;;;7.40;80.70;;;;;;5051443;28;20268;-72
2022/02/11 16:33:47;;;;;;;9.80;2.00;;;7.40;80.60;;;;;;5044262;28;20033;-72
2022/02/11 16:36:14;;;;;;;11.67;2.20;;;7.30;81.00;;;;;;5052139;28;20393;-71
2022/02/11 16:38:44;;;;;;;7.90;2.00;;;7.20;81.70;;;;;;5051625;28;20561;-72
2022/02/11 16:41:10;;;;;;;10.77;1.90;;;7.20;82.90;;;;;;5051671;28;20025;-71
2022/02/11 16:43:37;;;;;;;8.40;2.07;;;7.20;82.70;;;;;;5051510;28;20075;-71
2022/02/11 16:46:03;;;;;;;6.47;1.70;;;7.20;83.30;;;;;;5051254;28;20123;-71
2022/02/11 16:48:29;;;;;;;7.73;1.70;;;7.20;83.50;;;;;;5051436;28;20025;-70
2022/02/11 16:50:55;;;;;;;7.47;1.83;;;7.10;84.70;;;;;;5051216;28;20037;-74
2022/02/11 16:53:21;;;;;;;9.40;1.53;;;7.00;85.50;;;;;;5050838;28;20037;-74